createdAt,value
2023-04-23T00:02:03.187Z,18.02
2023-04-23T00:04:34.991Z,16.58
2023-04-23T00:07:03.416Z,18.42
2023-04-23T00:09:33.458Z,18.30
2023-04-23T00:12:01.849Z,17.67
2023-04-23T00:14:28.927Z,16.70
2023-04-23T00:16:56.073Z,17.20
2023-04-23T00:19:22.781Z,17.77
2023-04-23T00:21:49.504Z,16.75
2023-04-23T00:24:16.360Z,17.52
2023-04-23T00:26:43.176Z,16.08
2023-04-23T00:29:09.926Z,16.52
2023-04-23T00:31:36.756Z,15.68
2023-04-23T00:34:03.579Z,15.88
2023-04-23T00:36:30.523Z,16.48
2023-04-23T00:38:57.317Z,15.88
2023-04-23T00:41:27.340Z,14.43
2023-04-23T00:43:57.225Z,15.65
2023-04-23T00:46:26.236Z,15.15
2023-04-23T00:48:53.439Z,13.48
2023-04-23T00:51:23.118Z,14.13
2023-04-23T00:53:50.351Z,15.30
2023-04-23T00:56:17.980Z,13.48
2023-04-23T00:58:45.500Z,13.23
2023-04-23T01:01:12.722Z,13.95
2023-04-23T01:03:42.352Z,13.23
2023-04-23T01:06:09.313Z,13.50
2023-04-23T01:08:36.507Z,12.48
2023-04-23T01:11:03.671Z,12.70
2023-04-23T01:13:30.652Z,12.65
2023-04-23T01:15:57.731Z,11.68
2023-04-23T01:18:24.718Z,13.63
2023-04-23T01:20:51.824Z,12.63
2023-04-23T01:23:19.224Z,12.27
2023-04-23T01:25:46.558Z,12.10
2023-04-23T01:28:13.841Z,13.18
2023-04-23T01:30:43.510Z,12.20
2023-04-23T01:33:11.586Z,13.32
2023-04-23T01:35:40.723Z,12.40
2023-04-23T01:38:10.422Z,12.80
2023-04-23T01:40:38.133Z,11.60
2023-04-23T01:43:06.305Z,11.93
2023-04-23T01:45:33.371Z,10.85
2023-04-23T01:48:01.003Z,11.63
2023-04-23T01:50:29.768Z,11.32
2023-04-23T01:52:56.516Z,10.93
2023-04-23T01:55:23.774Z,11.18
2023-04-23T01:57:51.151Z,11.15
2023-04-23T02:00:18.767Z,11.55
2023-04-23T02:02:45.653Z,10.68
2023-04-23T02:05:20.642Z,11.85
2023-04-23T02:07:49.850Z,10.57
2023-04-23T02:10:16.768Z,10.68
2023-04-23T02:12:44.779Z,11.73
2023-04-23T02:15:12.164Z,10.88
2023-04-23T02:17:40.171Z,9.77
2023-04-23T02:20:10.817Z,10.20
2023-04-23T02:22:41.928Z,10.30
2023-04-23T02:25:09.501Z,10.13
2023-04-23T02:27:36.544Z,10.60
2023-04-23T02:30:03.734Z,10.60
2023-04-23T02:32:31.178Z,9.35
2023-04-23T02:34:59.617Z,9.52
2023-04-23T02:37:26.942Z,9.65
2023-04-23T02:39:53.783Z,9.38
2023-04-23T02:42:20.651Z,9.57
2023-04-23T02:44:47.297Z,8.52
2023-04-23T02:47:16.550Z,9.98
2023-04-23T02:49:43.239Z,9.80
2023-04-23T02:52:10.505Z,9.98
2023-04-23T02:54:37.348Z,9.65
2023-04-23T02:57:04.891Z,8.93
2023-04-23T02:59:31.725Z,9.18
2023-04-23T03:01:58.423Z,8.93
2023-04-23T03:04:25.208Z,8.88
2023-04-23T03:06:51.920Z,9.73
2023-04-23T03:09:18.666Z,9.25
2023-04-23T03:11:45.449Z,10.13
2023-04-23T03:14:12.223Z,9.02
2023-04-23T03:16:39.039Z,9.18
2023-04-23T03:19:05.822Z,8.82
2023-04-23T03:21:32.557Z,9.27
2023-04-23T03:24:01.451Z,9.68
2023-04-23T03:26:28.265Z,9.35
2023-04-23T03:28:54.962Z,9.90
2023-04-23T03:31:21.723Z,9.23
2023-04-23T03:33:48.457Z,9.23
2023-04-23T03:36:15.805Z,8.65
2023-04-23T03:38:42.547Z,9.13
2023-04-23T03:41:09.224Z,10.02
2023-04-23T03:43:35.951Z,9.65
2023-04-23T03:46:02.757Z,9.13
2023-04-23T03:48:29.487Z,8.88
2023-04-23T03:50:56.166Z,9.38
2023-04-23T03:53:22.879Z,9.90
2023-04-23T03:55:49.575Z,10.57
2023-04-23T03:58:17.040Z,9.73
2023-04-23T04:00:44.000Z,9.20
2023-04-23T04:03:10.768Z,9.60
2023-04-23T04:05:37.762Z,10.10
2023-04-23T04:08:05.208Z,9.75
2023-04-23T04:10:31.897Z,10.25
2023-04-23T04:12:58.605Z,9.68
2023-04-23T04:15:25.441Z,10.35
2023-04-23T04:17:52.179Z,9.60
2023-04-23T04:20:19.404Z,9.73
2023-04-23T04:22:46.836Z,8.82
2023-04-23T04:25:14.148Z,9.02
2023-04-23T04:27:41.548Z,9.05
2023-04-23T04:30:09.445Z,9.48
2023-04-23T04:32:38.708Z,9.30
2023-04-23T04:35:06.520Z,10.18
2023-04-23T04:37:33.843Z,9.18
2023-04-23T04:40:01.507Z,11.00
2023-04-23T04:42:28.261Z,10.35
2023-04-23T04:44:54.982Z,10.07
2023-04-23T04:47:21.737Z,10.05
2023-04-23T04:49:48.791Z,9.40
2023-04-23T04:52:15.548Z,8.85
2023-04-23T04:54:42.764Z,9.48
2023-04-23T04:57:09.628Z,8.57
2023-04-23T04:59:36.779Z,9.18
2023-04-23T05:02:03.606Z,9.27
2023-04-23T05:04:30.563Z,8.73
2023-04-23T05:06:57.277Z,9.18
2023-04-23T05:09:24.875Z,8.60
2023-04-23T05:11:51.970Z,9.25
2023-04-23T05:14:18.642Z,8.75
2023-04-23T05:16:45.552Z,8.65
2023-04-23T05:19:12.395Z,8.60
2023-04-23T05:21:39.762Z,9.00
2023-04-23T05:24:06.599Z,8.15
2023-04-23T05:26:33.421Z,8.05
2023-04-23T05:29:00.115Z,8.35
2023-04-23T05:31:28.831Z,8.68
2023-04-23T05:33:56.187Z,8.43
2023-04-23T05:36:22.873Z,8.73
2023-04-23T05:38:49.706Z,7.35
2023-04-23T05:41:16.410Z,8.80
2023-04-23T05:43:43.241Z,8.07
2023-04-23T05:46:10.218Z,7.60
2023-04-23T05:48:37.062Z,7.53
2023-04-23T05:51:03.956Z,7.05
2023-04-23T05:53:30.763Z,6.95
2023-04-23T05:55:57.442Z,7.70
2023-04-23T05:58:24.198Z,6.60
2023-04-23T06:00:52.904Z,7.28
2023-04-23T06:03:20.074Z,6.22
2023-04-23T06:05:47.097Z,6.88
2023-04-23T06:08:13.932Z,5.88
2023-04-23T06:10:40.817Z,5.90
2023-04-23T06:13:07.729Z,5.82
2023-04-23T06:15:34.485Z,6.72
2023-04-23T06:18:01.210Z,5.75
2023-04-23T06:20:27.964Z,5.63
2023-04-23T06:22:54.830Z,5.82
2023-04-23T06:25:21.647Z,6.03
2023-04-23T06:27:48.338Z,5.57
2023-04-23T06:30:15.105Z,5.85
2023-04-23T06:32:41.853Z,5.75
2023-04-23T06:35:09.137Z,5.50
2023-04-23T06:37:36.039Z,5.07
2023-04-23T06:40:03.015Z,5.95
2023-04-23T06:42:29.792Z,5.32
2023-04-23T06:44:59.213Z,5.68
2023-04-23T06:47:25.948Z,5.30
2023-04-23T06:49:52.646Z,4.70
2023-04-23T06:52:19.395Z,4.93
2023-04-23T06:54:46.179Z,5.47
2023-04-23T06:57:13.023Z,5.63
2023-04-23T06:59:39.985Z,5.32
2023-04-23T07:02:07.470Z,4.63
2023-04-23T07:04:34.208Z,5.45
2023-04-23T07:07:01.323Z,5.13
2023-04-23T07:09:28.892Z,5.63
2023-04-23T07:11:55.675Z,6.00
2023-04-23T07:14:22.536Z,5.47
2023-04-23T07:16:49.313Z,5.45
2023-04-23T07:19:16.085Z,5.97
2023-04-23T07:21:43.244Z,5.63
2023-04-23T07:24:10.378Z,5.70
2023-04-23T07:26:39.122Z,5.10
2023-04-23T07:29:10.563Z,5.25
2023-04-23T07:31:39.301Z,4.75
2023-04-23T07:34:06.794Z,5.43
2023-04-23T07:36:33.617Z,5.47
2023-04-23T07:39:00.635Z,5.25
2023-04-23T07:41:27.519Z,5.35
2023-04-23T07:43:54.265Z,5.07
2023-04-23T07:46:21.491Z,5.60
2023-04-23T07:48:48.345Z,4.90
2023-04-23T07:51:16.210Z,4.90
2023-04-23T07:53:44.148Z,5.25
2023-04-23T07:56:11.044Z,5.28
2023-04-23T07:58:38.484Z,5.38
2023-04-23T08:01:07.523Z,4.68
2023-04-23T08:03:34.416Z,4.90
2023-04-23T08:06:01.380Z,5.30
2023-04-23T08:08:28.082Z,4.93
2023-04-23T08:10:56.169Z,4.85
2023-04-23T08:13:22.986Z,4.28
2023-04-23T08:15:49.733Z,4.72
2023-04-23T08:18:16.484Z,4.32
2023-04-23T08:20:43.239Z,5.45
2023-04-23T08:23:10.029Z,5.05
2023-04-23T08:25:36.860Z,4.70
2023-04-23T08:28:04.182Z,4.93
2023-04-23T08:30:31.057Z,5.25
2023-04-23T08:32:58.194Z,5.47
2023-04-23T08:35:25.425Z,4.57
2023-04-23T08:37:52.134Z,4.60
2023-04-23T08:40:19.101Z,4.88
2023-04-23T08:42:55.311Z,4.22
2023-04-23T08:45:22.138Z,4.43
2023-04-23T08:47:51.965Z,4.60
2023-04-23T08:50:20.142Z,4.97
2023-04-23T08:52:50.506Z,4.25
2023-04-23T08:57:46.940Z,4.47
2023-04-23T09:00:15.588Z,4.30
2023-04-23T09:02:45.245Z,4.47
2023-04-23T09:05:14.785Z,4.30
2023-04-23T09:07:42.693Z,4.15
2023-04-23T09:10:13.707Z,4.25
2023-04-23T09:12:43.744Z,4.18
2023-04-23T09:15:11.331Z,3.85
2023-04-23T09:17:46.432Z,4.00
2023-04-23T09:20:15.599Z,4.25
2023-04-23T09:22:47.384Z,3.63
2023-04-23T09:25:18.450Z,3.78
2023-04-23T09:27:46.912Z,4.07
2023-04-23T09:30:14.139Z,4.03
2023-04-23T09:32:42.662Z,3.58
2023-04-23T09:35:12.193Z,4.28
2023-04-23T09:37:42.508Z,4.07
2023-04-23T09:40:10.581Z,4.00
2023-04-23T09:42:37.875Z,4.47
2023-04-23T09:45:11.488Z,4.03
2023-04-23T09:47:49.681Z,4.10
2023-04-23T09:50:18.749Z,3.92
2023-04-23T09:52:45.721Z,4.03
2023-04-23T09:55:12.405Z,3.95
2023-04-23T09:57:41.378Z,4.72
2023-04-23T10:00:17.099Z,4.13
2023-04-23T10:02:50.064Z,4.38
2023-04-23T10:05:24.881Z,4.43
2023-04-23T10:07:56.362Z,3.97
2023-04-23T10:10:24.962Z,4.00
2023-04-23T10:12:57.138Z,4.40
2023-04-23T10:15:26.993Z,4.40
2023-04-23T10:20:22.951Z,4.05
2023-04-23T10:22:50.648Z,4.18
2023-04-23T10:25:21.241Z,3.90
2023-04-23T10:27:54.406Z,4.35
2023-04-23T10:30:22.725Z,4.18
2023-04-23T10:32:50.659Z,3.85
2023-04-23T10:35:17.725Z,3.88
2023-04-23T10:37:46.740Z,4.20
2023-04-23T10:40:16.381Z,4.13
2023-04-23T10:42:45.079Z,4.32
2023-04-23T10:45:24.772Z,4.38
2023-04-23T10:47:57.608Z,4.55
2023-04-23T10:50:36.197Z,4.43
2023-04-23T10:53:04.162Z,4.28
2023-04-23T10:55:32.347Z,4.50
2023-04-23T10:58:07.895Z,5.22
2023-04-23T11:00:46.258Z,5.32
2023-04-23T11:03:41.604Z,4.75
2023-04-23T11:06:15.640Z,4.47
2023-04-23T11:08:54.076Z,4.65
2023-04-23T11:11:41.350Z,4.72
2023-04-23T11:14:16.804Z,5.20
2023-04-23T11:16:43.785Z,4.93
2023-04-23T11:19:12.591Z,6.55
2023-04-23T11:22:01.593Z,13.50
2023-04-23T11:24:33.497Z,4.78
2023-04-23T11:27:01.180Z,4.93
2023-04-23T11:29:29.104Z,4.70
2023-04-23T11:34:26.386Z,3.95
2023-04-23T11:36:57.389Z,4.50
2023-04-23T11:39:27.379Z,4.88
2023-04-23T11:44:22.064Z,4.57
2023-04-23T11:46:50.175Z,5.50
2023-04-23T11:49:20.591Z,5.28
2023-04-23T11:51:47.962Z,5.00
2023-04-23T11:54:15.071Z,4.55
2023-04-23T11:56:42.636Z,3.70
2023-04-23T11:59:09.642Z,4.32
2023-04-23T12:01:46.927Z,4.43
2023-04-23T12:04:28.569Z,4.28
2023-04-23T12:06:57.167Z,3.83
2023-04-23T12:09:26.348Z,4.10
2023-04-23T12:11:53.395Z,4.07
2023-04-23T12:14:28.301Z,4.30
2023-04-23T12:16:55.993Z,4.55
2023-04-23T12:19:28.496Z,4.45
2023-04-23T12:22:00.673Z,4.28
2023-04-23T12:24:29.980Z,4.43
2023-04-23T12:27:02.450Z,4.60
2023-04-23T12:29:32.604Z,4.20
2023-04-23T12:34:27.739Z,4.40
2023-04-23T12:36:57.377Z,4.72
2023-04-23T12:39:30.127Z,4.13
2023-04-23T12:42:02.967Z,4.40
2023-04-23T12:44:30.254Z,5.00
2023-04-23T12:46:58.297Z,4.45
2023-04-23T12:49:29.908Z,5.20
2023-04-23T12:51:57.919Z,4.85
2023-04-23T12:54:26.620Z,4.90
2023-04-23T12:56:53.951Z,4.63
2023-04-23T12:59:20.847Z,4.75
2023-04-23T13:01:48.244Z,5.00
2023-04-23T13:04:15.181Z,4.72
2023-04-23T13:06:42.386Z,4.90
2023-04-23T13:09:10.343Z,4.80
2023-04-23T13:11:38.979Z,4.60
2023-04-23T13:14:06.566Z,4.47
2023-04-23T13:16:33.917Z,4.03
2023-04-23T13:19:01.246Z,4.72
2023-04-23T13:21:27.960Z,4.32
2023-04-23T13:23:54.769Z,4.63
2023-04-23T13:26:21.574Z,4.25
2023-04-23T13:28:48.314Z,4.32
2023-04-23T13:31:15.069Z,4.78
2023-04-23T13:33:42.174Z,8.73
2023-04-23T13:36:09.261Z,4.55
2023-04-23T13:38:36.380Z,7.22
2023-04-23T13:41:03.181Z,4.93
2023-04-23T13:43:29.922Z,7.18
2023-04-23T13:45:56.773Z,4.82
2023-04-23T13:48:28.548Z,4.32
2023-04-23T13:50:55.801Z,4.82
2023-04-23T13:53:22.873Z,4.28
2023-04-23T13:55:49.696Z,4.55
2023-04-23T13:58:16.742Z,4.50
2023-04-23T14:00:43.896Z,4.80
2023-04-23T14:03:12.086Z,4.78
2023-04-23T14:05:38.836Z,3.90
2023-04-23T14:08:05.740Z,4.85
2023-04-23T14:10:32.795Z,5.85
2023-04-23T14:12:59.587Z,4.35
2023-04-23T14:15:26.510Z,4.45
2023-04-23T14:17:53.320Z,4.03
2023-04-23T14:20:21.813Z,4.72
2023-04-23T14:23:01.298Z,4.72
2023-04-23T14:25:35.980Z,4.63
2023-04-23T14:28:23.678Z,4.82
2023-04-23T14:30:55.567Z,4.97
2023-04-23T14:33:22.603Z,5.68
2023-04-23T14:35:49.396Z,5.20
2023-04-23T14:38:16.150Z,4.65
2023-04-23T14:40:42.808Z,4.55
2023-04-23T14:43:15.612Z,5.18
2023-04-23T14:45:43.043Z,4.90
2023-04-23T14:48:09.838Z,4.95
2023-04-23T14:50:36.723Z,4.75
2023-04-23T14:53:07.090Z,5.15
2023-04-23T14:55:34.274Z,5.20
2023-04-23T14:58:01.492Z,5.07
2023-04-23T15:00:28.567Z,5.32
2023-04-23T15:02:56.564Z,4.78
2023-04-23T15:05:23.672Z,5.18
2023-04-23T15:07:51.757Z,4.85
2023-04-23T15:10:20.379Z,4.57
2023-04-23T15:13:01.978Z,4.82
2023-04-23T15:15:47.306Z,5.25
2023-04-23T15:18:15.149Z,4.65
2023-04-23T15:20:43.529Z,4.38
2023-04-23T15:23:10.554Z,3.90
2023-04-23T15:25:37.790Z,5.10
2023-04-23T15:28:05.642Z,4.00
2023-04-23T15:30:32.458Z,4.53
2023-04-23T15:32:59.247Z,4.35
2023-04-23T15:35:27.123Z,3.90
2023-04-23T15:37:54.642Z,4.10
2023-04-23T15:40:21.444Z,3.92
2023-04-23T15:42:49.946Z,4.95
2023-04-23T15:45:17.125Z,4.65
2023-04-23T15:47:44.180Z,5.07
2023-04-23T15:50:11.687Z,5.32
2023-04-23T15:52:39.052Z,5.50
2023-04-23T15:55:06.490Z,4.55
2023-04-23T15:57:33.315Z,4.72
2023-04-23T16:00:00.147Z,4.55
2023-04-23T16:02:27.557Z,4.63
2023-04-23T16:04:54.456Z,4.93
2023-04-23T16:07:21.268Z,4.60
2023-04-23T16:09:48.364Z,3.90
2023-04-23T16:12:15.115Z,4.22
2023-04-23T16:14:42.694Z,4.35
2023-04-23T16:17:09.604Z,4.20
2023-04-23T16:19:36.428Z,4.03
2023-04-23T16:22:03.172Z,4.63
2023-04-23T16:24:29.924Z,4.45
2023-04-23T16:26:56.786Z,4.68
2023-04-23T16:29:23.713Z,4.45
2023-04-23T16:31:50.615Z,4.40
2023-04-23T16:34:17.569Z,4.80
2023-04-23T16:36:44.419Z,4.28
2023-04-23T16:39:11.511Z,4.60
2023-04-23T16:41:38.445Z,4.80
2023-04-23T16:44:05.399Z,4.53
2023-04-23T16:46:32.392Z,4.50
2023-04-23T16:48:59.596Z,4.63
2023-04-23T16:51:27.013Z,5.50
2023-04-23T16:53:54.166Z,5.45
2023-04-23T16:56:21.496Z,5.00
2023-04-23T16:58:48.651Z,5.00
2023-04-23T17:01:16.564Z,5.20
2023-04-23T17:03:46.522Z,5.40
2023-04-23T17:09:04.784Z,5.07
2023-04-23T17:11:32.016Z,4.85
2023-04-23T17:13:58.793Z,4.93
2023-04-23T17:16:29.247Z,5.35
2023-04-23T17:18:56.776Z,5.75
2023-04-23T17:21:24.244Z,5.15
2023-04-23T17:23:51.261Z,4.93
2023-04-23T17:26:18.021Z,5.63
2023-04-23T17:28:44.740Z,6.30
2023-04-23T17:31:11.998Z,6.07
2023-04-23T17:33:39.077Z,5.65
2023-04-23T17:36:06.062Z,6.90
2023-04-23T17:38:33.006Z,5.75
2023-04-23T17:41:00.069Z,6.30
2023-04-23T17:43:32.041Z,6.32
2023-04-23T17:45:59.226Z,6.32
2023-04-23T17:48:26.119Z,6.30
2023-04-23T17:50:54.517Z,12.75
2023-04-23T17:53:21.443Z,9.27
2023-04-23T17:55:48.270Z,7.57
2023-04-23T17:58:15.224Z,7.78
2023-04-23T18:00:42.881Z,9.32
2023-04-23T18:03:11.324Z,10.23
2023-04-23T18:05:38.296Z,10.30
2023-04-23T18:08:06.915Z,10.23
2023-04-23T18:10:34.064Z,9.93
2023-04-23T18:13:04.744Z,11.00
2023-04-23T18:15:32.315Z,16.05
2023-04-23T18:17:59.825Z,16.15
2023-04-23T18:20:26.915Z,34.17
2023-04-23T18:22:56.944Z,16.73
2023-04-23T18:25:25.266Z,12.38
2023-04-23T18:27:52.138Z,13.15
2023-04-23T18:30:23.154Z,13.00
2023-04-23T18:32:59.516Z,12.43
2023-04-23T18:35:26.520Z,12.32
2023-04-23T18:38:06.819Z,12.95
2023-04-23T18:40:35.671Z,12.52
2023-04-23T18:43:02.810Z,11.40
2023-04-23T18:45:29.490Z,11.68
2023-04-23T18:48:22.910Z,12.70
2023-04-23T18:50:50.164Z,12.48
2023-04-23T18:53:17.068Z,12.18
2023-04-23T18:55:43.873Z,12.75
2023-04-23T18:58:10.611Z,12.30
2023-04-23T19:00:37.340Z,12.02
2023-04-23T19:03:09.374Z,13.15
2023-04-23T19:05:46.748Z,14.75
2023-04-23T19:08:13.594Z,17.35
2023-04-23T19:10:40.688Z,16.95
2023-04-23T19:13:07.422Z,16.90
2023-04-23T19:15:34.316Z,17.55
2023-04-23T19:18:01.096Z,17.92
2023-04-23T19:20:30.849Z,18.10
2023-04-23T19:22:57.876Z,16.38
2023-04-23T19:25:24.746Z,16.95
2023-04-23T19:27:51.505Z,15.73
2023-04-23T19:30:18.329Z,15.73
2023-04-23T19:32:45.068Z,16.95
2023-04-23T19:35:11.789Z,16.58
2023-04-23T19:37:38.582Z,14.95
2023-04-23T19:40:07.096Z,15.77
2023-04-23T19:42:33.966Z,15.88
2023-04-23T19:45:00.783Z,16.75
2023-04-23T19:47:27.679Z,14.68
2023-04-23T19:49:54.449Z,15.80
2023-04-23T19:52:24.060Z,16.92
2023-04-23T19:54:51.111Z,15.88
2023-04-23T19:57:19.371Z,16.10
2023-04-23T19:59:46.697Z,16.13
2023-04-23T20:02:14.256Z,16.40
2023-04-23T20:04:41.536Z,16.63
2023-04-23T20:07:09.810Z,17.20
2023-04-23T20:09:36.898Z,16.70
2023-04-23T20:12:04.023Z,18.42
2023-04-23T20:14:31.091Z,17.58
2023-04-23T20:16:58.860Z,17.58
2023-04-23T20:19:26.137Z,17.42
2023-04-23T20:21:53.463Z,17.52
2023-04-23T20:24:23.789Z,18.10
2023-04-23T20:26:51.366Z,17.15
2023-04-23T20:29:18.065Z,17.92
2023-04-23T20:31:49.696Z,17.98
2023-04-23T20:34:17.181Z,18.08
2023-04-23T20:36:47.190Z,16.60
2023-04-23T20:39:14.898Z,17.48
2023-04-23T20:41:41.790Z,16.73
2023-04-23T20:44:09.125Z,16.13
2023-04-23T20:46:37.114Z,15.90
2023-04-23T20:49:04.477Z,15.43
2023-04-23T20:51:34.155Z,16.02
2023-04-23T20:54:01.926Z,16.77
2023-04-23T20:56:29.158Z,16.25
2023-04-23T20:58:57.668Z,17.10
2023-04-23T21:01:26.056Z,16.65
2023-04-23T21:03:53.992Z,15.50
2023-04-23T21:06:22.057Z,16.30
2023-04-23T21:08:49.037Z,16.15
2023-04-23T21:11:18.172Z,15.30
2023-04-23T21:13:46.112Z,14.98
2023-04-23T21:16:13.604Z,14.25
2023-04-23T21:18:41.008Z,14.80
2023-04-23T21:21:09.532Z,15.82
2023-04-23T21:23:36.304Z,14.57
2023-04-23T21:26:04.020Z,15.77
2023-04-23T21:28:31.953Z,14.40
2023-04-23T21:31:06.819Z,14.52
2023-04-23T21:33:34.197Z,13.02
2023-04-23T21:36:01.110Z,13.90
2023-04-23T21:38:27.978Z,13.88
2023-04-23T21:40:55.371Z,13.35
2023-04-23T21:43:24.275Z,13.98
2023-04-23T21:45:51.058Z,13.93
2023-04-23T21:48:17.937Z,13.10
2023-04-23T21:50:44.678Z,13.77
2023-04-23T21:53:13.189Z,14.18
2023-04-23T21:55:39.976Z,13.23
2023-04-23T21:58:17.134Z,12.55
2023-04-23T22:00:45.374Z,13.18
2023-04-23T22:03:12.756Z,12.30
2023-04-23T22:05:45.785Z,11.65
2023-04-23T22:08:12.879Z,11.55
2023-04-23T22:10:43.152Z,11.70
2023-04-23T22:13:11.236Z,11.15
2023-04-23T22:15:38.367Z,11.63
2023-04-23T22:18:05.511Z,12.57
2023-04-23T22:20:32.437Z,11.02
2023-04-23T22:22:59.421Z,11.32
2023-04-23T22:25:26.275Z,12.27
2023-04-23T22:27:53.205Z,11.50
2023-04-23T22:30:20.522Z,10.68
2023-04-23T22:32:47.354Z,11.60
2023-04-23T22:35:14.295Z,11.13
2023-04-23T22:37:41.277Z,11.65
2023-04-23T22:40:09.494Z,11.00
2023-04-23T22:42:37.414Z,10.57
2023-04-23T22:45:04.843Z,11.05
2023-04-23T22:47:31.810Z,10.40
2023-04-23T22:49:59.054Z,10.88
2023-04-23T22:52:26.862Z,10.70
2023-04-23T22:54:54.958Z,11.23
2023-04-23T22:57:21.861Z,11.20
2023-04-23T22:59:48.664Z,11.48
2023-04-23T23:02:15.985Z,12.60
2023-04-23T23:04:42.943Z,10.30
2023-04-23T23:07:10.005Z,10.45
2023-04-23T23:09:36.687Z,11.52
2023-04-23T23:12:04.420Z,11.60
2023-04-23T23:14:33.240Z,10.40
2023-04-23T23:17:00.048Z,11.20
2023-04-23T23:19:27.299Z,11.13
2023-04-23T23:21:54.355Z,11.93
2023-04-23T23:24:22.158Z,10.25
2023-04-23T23:26:49.377Z,10.93
2023-04-23T23:29:16.223Z,11.20
2023-04-23T23:31:43.216Z,10.30
2023-04-23T23:34:10.094Z,10.32
2023-04-23T23:36:36.737Z,11.55
2023-04-23T23:39:04.464Z,10.43
2023-04-23T23:41:31.129Z,10.45
2023-04-23T23:43:57.819Z,10.65
2023-04-23T23:46:25.487Z,10.27
2023-04-23T23:48:53.305Z,9.68
2023-04-23T23:51:20.272Z,10.95
2023-04-23T23:53:47.009Z,11.20
2023-04-23T23:56:13.981Z,10.50
2023-04-23T23:58:40.757Z,11.63
